Aviation Digital Data Service (ADDS)

Output produced by METARs form (1611 UTC 03 June 2020)
found at http://www.aviationweather.gov/metar/data/
 
LECO 031600Z AUTO 02005KT 310V080 9999 OVC015 18/15 Q1012
TAF AMD LECO 031556Z 0315/0415 36006KT 9999 SCT015 TX19/0315Z TN15/0405Z 
     TEMPO 0316/0407 BKN010 
     PROB30 
     TEMPO 0400/0412 RA
       
LEAB 031600Z 27016KT CAVOK 30/09 Q1008 NOSIG
TAF LEAB 031400Z 0315/0324 28014KT CAVOK 
     TEMPO 0315/0319 28017G27KT 
     PROB30 
     TEMPO 0315/0318 FEW045CB
       
LERI 031100Z 11004KT 020V190 CAVOK 29/12 Q1009 NOSIG
TAF LERI 031400Z 0315/0324 22009KT CAVOK
       
LEAL 031600Z 18008KT 130V220 CAVOK 26/18 Q1006 NOSIG
TAF LEAL 031100Z 0312/0412 18012KT 9999 FEW040 TX27/0312Z TN20/0406Z 
     TEMPO 0312/0318 18015G25KT 
     TEMPO 0319/0323 VRB03KT 
     BECMG 0323/0401 28010KT 
     TEMPO 0407/0412 27020G30KT
       
LEAM 031600Z AUTO 18012KT 150V210 CAVOK 24/19 Q1007
TAF LEAM 031400Z 0315/0415 21014KT 9999 FEW030 TX30/0413Z TN18/0405Z 
     PROB30 
     TEMPO 0315/0320 21018G30KT 
     BECMG 0321/0323 VRB02KT 
     BECMG 0407/0409 22014KT 
     TEMPO 0409/0415 22020G33KT
       
LEGA 031300Z 30009KT 250V320 9999 FEW080 29/09 Q1013
TAF LEGA 031100Z 0312/0321 31009KT CAVOK
       
LEAS 031600Z AUTO 30012KT 280V340 9999 BKN007 18/16 Q1010
TAF LEAS 031400Z 0315/0415 30009KT 9999 FEW005 BKN015 TX19/0315Z TN15/0405Z 
     PROB40 
     TEMPO 0321/0409 3000 -RA BR BKN005 
     TEMPO 0402/0415 RA SHRA SCT030TCU 
     TEMPO 0409/0415 31015G25KT
       
LEMD 031600Z 26018KT 9999 FEW070 29/12 Q1007 NOSIG
TAF LEMD 031100Z 0312/0418 23012KT 9999 SCT045 TX30/0316Z TN13/0405Z 
     TEMPO 0312/0320 24015G32KT 
     TEMPO 0316/0320 28015KT 
     PROB40 
     TEMPO 0318/0408 SHRA RA SCT040TCU 
     PROB30 
     TEMPO 0320/0408 VRB15G25KT 3000 TS SHRA SCT030CB 
     TEMPO 0407/0410 28012KT 
     BECMG 0408/0410 32015KT 
     TEMPO 0409/0418 34018G32KT
       
LEBL 031600Z 19012KT 9999 SCT012 BKN020 23/19 Q1005 NOSIG
TAF AMD LEBL 031600Z 0316/0412 21010KT 9999 FEW015 TX25/0412Z TN17/0406Z 
     BECMG 0318/0320 VRB03KT 
     TEMPO 0316/0412 FEW030CB 
     PROB40 
     TEMPO 0316/0408 4000 TSRA SCT030CB BKN040
       
LEBB 031600Z 32008KT 280V350 9999 SCT012 SCT020 BKN030 20/17 Q1009 TEMPO RA
TAF LEBB 031100Z 0312/0412 31008KT 9999 SCT020 TX21/0314Z TN15/0406Z 
     PROB40 
     TEMPO 0312/0318 RA SHRA SCT030TCU 
     PROB30 
     TEMPO 0312/0318 TS SCT030CB 
     TEMPO 0402/0412 3000 RA SHRA SCT030TCU 
     PROB30 
     TEMPO 0404/0412 TS SHGR SCT030CB 
     TEMPO 0406/0412 32015G28KT
       
LEBG 031600Z AUTO 01004KT 330V070 9999 -TSRA ///CB 14/13 Q1010 RESHRA
TAF LEBG 031400Z 0315/0324 26014KT 9999 SCT028 
     TEMPO 0315/0321 FEW040TCU 
     TEMPO 0315/0318 VRB15G25KT TS SHRA SCT040CB 
     PROB30 
     TEMPO 0315/0318 2000 SHGR BKN020CB
       
LEBA 031600Z AUTO 24011KT 200V280 CAVOK 30/13 Q1008
TAF LEBA 031400Z 0315/0324 24012KT CAVOK 
     TEMPO 0315/0320 23016G28KT
       
LEVS 031600Z 22015KT 190V250 9999 FEW020 SCT035 28/12 Q1008
TAF LEVS 031400Z 0315/0324 24014KT 9999 SCT035 
     TEMPO 0315/0320 24015G32KT 
     TEMPO 0316/0320 28015KT 
     PROB40 
     TEMPO 0318/0324 SHRA RA SCT040TCU 
     PROB30 
     TEMPO 0320/0324 VRB15G25KT 3000 TS SHRA SCT025CB
       
GCFV 031600Z 08006KT 050V110 9999 FEW035 26/19 Q1014
TAF AMD GCFV 031552Z 0315/0415 09010KT 9999 SCT025 TX27/0414Z TN21/0406Z 
     BECMG 0320/0322 31008KT 
     BECMG 0409/0411 13010KT
       
LEGT 031600Z 25016G26KT 200V290 9999 FEW045 29/12 Q1007
TAF LEGT 031400Z 0315/0324 24016KT 9999 SCT045 
     TEMPO 0315/0320 24015G32KT 
     TEMPO 0316/0320 28015KT 
     PROB40 
     TEMPO 0318/0324 SHRA RA SCT040TCU 
     PROB30 
     TEMPO 0320/0324 VRB15G25KT 3000 TS SHRA SCT025CB
       
LEGE 031600Z 15011KT 9999 TS FEW030CB SCT040 20/17 Q1005
TAF LEGE 031100Z 0312/0412 18012KT 9999 FEW030 SCT040 TX28/0315Z TN13/0406Z 
     TEMPO 0312/0314 20015G25KT 
     BECMG 0318/0320 VRB03KT 
     TEMPO 0312/0412 4000 TSRA SCT030CB BKN040
       
GCLP 031600Z 02009KT 350V060 9999 FEW025 SCT040 25/19 Q1014 NOSIG
TAF GCLP 031400Z 0315/0415 04008KT 9999 SCT030 TX26/0414Z TN20/0406Z 
     BECMG 0409/0411 15012KT
       
LEGR 031600Z AUTO 28009KT 220V350 CAVOK 29/09 Q1011
TAF LEGR 031400Z 0315/0415 29012KT CAVOK TX32/0315Z TN11/0405Z 
     BECMG 0320/0322 VRB02KT 
     PROB40 
     TEMPO 0403/0409 BKN010 
     BECMG 0406/0408 29010KT 
     PROB30 
     TEMPO 0409/0415 4000 SHRA FEW030CB
       
GCHI 031600Z 18006KT 140V230 9999 FEW040 SCT055 23/18 Q1014
TAF GCHI 031400Z 0315/0415 10006KT 9999 SCT030 TX25/0414Z TN20/0406Z 
     PROB30 
     TEMPO 0410/0415 RA
       
LEIB 031600Z 22011KT 180V250 9999 SCT011 23/18 Q1006 NOSIG
TAF LEIB 031400Z 0315/0415 21012KT 9999 FEW012 TX28/0412Z TN16/0406Z 
     TEMPO 0315/0320 21012G22KT 
     BECMG 0401/0403 32007KT 
     PROB40 
     TEMPO 0412/0415 36015G25KT 4000 TSRA SCT030CB BKN040
       
LEJR 031600Z 24012KT 200V290 CAVOK 26/13 Q1011
TAF LEJR 031100Z 0312/0412 23012KT CAVOK TX29/0314Z TN15/0405Z 
     BECMG 0321/0323 VRB02KT 
     BECMG 0407/0409 23012KT 
     PROB30 
     TEMPO 0406/0412 22015G25KT 4000 SHRA FEW030CB
       
GCGM 031600Z AUTO 23014KT 9999 FEW055 24/17 Q1015 RMK R09/23010KT 180V310 ARP/24013KT 200V270
TAF GCGM 031400Z 0315/0415 25012KT 9999 FEW025 TX25/0414Z TN19/0406Z
       
GCLA 031600Z 08004KT 050V120 9999 FEW040 BKN050 23/18 Q1014
TAF GCLA 031400Z 0315/0415 18007KT 9999 SCT040 TX26/0414Z TN19/0406Z 
     PROB30 
     TEMPO 0317/0321 RA
       
GCRR 031600Z 16011KT 9999 FEW035 25/21 Q1013
TAF GCRR 031400Z 0315/0415 16010KT 9999 SCT025 TX28/0414Z TN20/0406Z 
     BECMG 0319/0321 33008KT 
     BECMG 0407/0409 14010KT
       
LELN 031600Z AUTO 35004KT 300V040 9999 BKN044 OVC055 20/13 Q1009
TAF LELN 031400Z 0315/0324 33010KT 9999 SCT040 
     TEMPO 0315/0320 FEW040TCU 
     TEMPO 0315/0318 VRB15G25KT TS SHRA SCT035CB 
     PROB40 
     TEMPO 0315/0318 2000 SHGR BKN020CB
       
LEMG 031600Z 13006KT 9999 FEW070 32/15 Q1008 NOSIG
TAF LEMG 031100Z 0312/0412 15006KT 9999 FEW040 TX30/0313Z TN17/0406Z 
     BECMG 0317/0319 29006KT
       
GEML 031600Z AUTO 29013KT 250V330 CAVOK 26/14 Q1010
TAF GEML 031400Z 0315/0415 27016G28KT CAVOK TX27/0414Z TN18/0405Z 
     BECMG 0402/0404 27012KT 
     BECMG 0410/0412 27015G25KT
       
LEMH 031600Z 19014KT CAVOK 23/16 Q1008
TAF LEMH 031400Z 0315/0415 18010KT 9999 FEW040 TX28/0412Z TN16/0406Z 
     BECMG 0400/0402 23012KT 
     PROB30 
     TEMPO 0411/0415 33020G30KT 4000 TSRA SCT030CB BKN040
       
LEMO 031600Z 25013KT 210V310 CAVOK 27/12 Q1010 NOSIG
TAF LEMO 031400Z 0315/0324 23012KT CAVOK 
     PROB40 
     TEMPO 0315/0320 24015G25KT FEW040CB
       
LEPP 031600Z AUTO 01003KT 320V060 9999 -RA FEW038 18/16 Q1008
TAF LEPP 031400Z 0315/0415 VRB04KT 9999 SCT015 BKN040 TX19/0415Z TN14/0405Z 
     TEMPO 0315/0318 3000 RA SHRA SCT030TCU 
     PROB30 
     TEMPO 0315/0318 TS SCT030CB 
     TEMPO 0315/0324 35010KT 
     PROB40 
     TEMPO 0402/0415 RA SHRA SCT030TCU 
     PROB30 
     TEMPO 0402/0415 TS SHGR SCT030CB 
     TEMPO 0409/0415 33015G29KT
       
LERS 031600Z 19004KT 110V230 9000 SHRA BKN025 FEW030CB 22/21 Q1005
TAF LERS 031400Z 0315/0415 18010KT 9999 SCT025 TX27/0412Z TN16/0406Z 
     BECMG 0318/0321 VRB03KT 
     TEMPO 0315/0407 4000 TSRA SCT030CB BKN040 
     BECMG 0412/0414 28010KT 
     TEMPO 0414/0415 28015G25KT
       
LERT 031600Z 26014KT 230V300 CAVOK 24/17 Q1012 NOSIG
TAF LERT 031400Z 0315/0324 27014KT CAVOK
       
LESA 031600Z AUTO 30015KT 270V330 CAVOK 25/11 Q1010
TAF LESA 031100Z 0312/0412 28012KT 9999 FEW035 TX29/0316Z TN13/0405Z 
     TEMPO 0312/0320 27018G30KT 
     PROB40 
     TEMPO 0314/0324 FEW040TCU 
     PROB40 
     TEMPO 0316/0322 SHRA SCT040TCU 
     PROB40 0322/0406 BKN010 
     BECMG 0407/0408 32017KT
       
LESO 031600Z 25005KT 210V320 9999 BKN030 21/16 Q1008
TAF LESO 031100Z 0312/0412 27008KT 9999 SCT020 SCT040 TX24/0314Z TN16/0405Z 
     PROB40 
     TEMPO 0312/0318 RA SHRA SCT030TCU 
     PROB30 
     TEMPO 0312/0318 TS SCT030CB 
     TEMPO 0403/0412 3000 RA SHRA SCT030TCU 
     PROB30 
     TEMPO 0404/0412 TS SHGR SCT030CB 
     TEMPO 0406/0412 29015G27KT
       
LEXJ 031600Z AUTO 31013KT 280V350 6000 SCT016 SCT021 BKN030 20/17 Q1009
TAF LEXJ 031400Z 0315/0415 28009KT 9999 BKN020 TX22/0315Z TN16/0405Z 
     TEMPO 0400/0415 3000 RA SHRA SCT030TCU 
     PROB30 
     TEMPO 0403/0415 TS SHGR SCT030CB 
     TEMPO 0406/0415 30015G28KT
       
LEST 031600Z 27006KT 200V340 9000 FEW009 SCT022 20/16 Q1011 NOSIG
TAF LEST 031100Z 0312/0412 27005KT 9000 SCT005 BKN015 TX19/0315Z TN14/0405Z 
     TEMPO 0312/0315 BKN005 
     PROB30 
     TEMPO 0315/0320 RA SHRA SCT030TCU 
     TEMPO 0322/0409 3000 BR BKN005
       
LESU 031600Z 28003KT 250V320 9999 FEW035 FEW040CB SCT060 22/12 Q1007
TAF LESU 031400Z 0315/0415 20010KT 9999 SCT040 TX21/0413Z TN10/0406Z 
     TEMPO 0315/0415 4000 TSRA SCT030CB BKN040
       
LEZL 031600Z 25013KT 200V280 CAVOK 28/13 Q1010 NOSIG
TAF LEZL 031400Z 0315/0415 23010KT CAVOK TX31/0315Z TN17/0405Z 
     PROB30 
     TEMPO 0315/0319 22015G25KT 
     BECMG 0322/0324 VRB02KT 
     BECMG 0406/0408 23010KT 
     PROB30 
     TEMPO 0409/0415 4000 SHRA FEW030CB
       
LESB 031600Z AUTO 21009KT 180V250 CAVOK 24/13 Q1008
LEBZ 031600Z AUTO 27012KT CAVOK 28/12 Q1009
TAF LEBZ 031100Z 0312/0412 26009KT CAVOK TX28/0315Z TN16/0405Z 
     PROB30 
     TEMPO 0406/0412 4000 RA BR
       
GCXO 031600Z 32005KT 280V350 8000 FEW008 BKN020 19/17 Q1016 NOSIG
TAF GCXO 031400Z 0315/0415 30010KT 9999 SCT020 TX24/0414Z TN17/0406Z 
     PROB30 
     TEMPO 0321/0409 4000 DZ BCFG BKN010 
     BECMG 0405/0407 13008KT
       
GCTS 031600Z 26019KT 230V290 9999 FEW020 26/16 Q1013 NOSIG
TAF GCTS 031400Z 0315/0415 26018KT 9999 SCT025 TX28/0414Z TN20/0406Z 
     TEMPO 0315/0318 27015G25KT 
     BECMG 0320/0322 31006KT 
     BECMG 0409/0411 27016KT
       
LETO 031600Z 24017KT 200V280 9999 SCT065 29/12 Q1006 NOSIG
TAF LETO 031100Z 0312/0412 23012KT 9999 SCT050 TX30/0316Z TN12/0405Z 
     TEMPO 0312/0320 24015G32KT 
     TEMPO 0316/0320 28015KT 
     PROB40 
     TEMPO 0318/0408 SHRA RA SCT040TCU 
     PROB30 
     TEMPO 0320/0408 VRB15G25KT 3000 TS SHRA SCT030CB 
     TEMPO 0407/0410 28012KT 
     BECMG 0408/0410 32015KT 
     TEMPO 0409/0412 34018G32KT
       
LEVC 031600Z 09008KT 050V130 9999 FEW055 30/17 Q1003 NOSIG
TAF LEVC 031100Z 0312/0412 11010KT 9999 FEW040 TX30/0312Z TN17/0406Z 
     BECMG 0318/0320 05009KT 
     TEMPO 0320/0322 06010G20KT 
     BECMG 0322/0324 VRB03KT 
     BECMG 0408/0410 30010KT 
     PROB40 
     TEMPO 0410/0412 34015G25KT 4000 TSRA SCT030CB BKN040
       
LEVD 031600Z AUTO 34013KT 9999 SCT041 20/12 Q1009
TAF LEVD 031100Z 0312/0412 25012KT 9999 FEW030 TX27/0316Z TN10/0405Z 
     TEMPO 0312/0403 SHRA SCT035TCU 
     TEMPO 0315/0324 VRB25G35KT 3000 TS SHRA SCT030CB 
     PROB30 
     TEMPO 0315/0323 VRB35G45KT 2000 SHGR SCT020CB 
     BECMG 0402/0403 34012KT
       
LEVX 031600Z 25006KT 200V330 9999 BKN012 17/15 Q1012 NOSIG
TAF LEVX 031100Z 0312/0412 36004KT 9000 BKN015 TX21/0315Z TN13/0405Z 
     TEMPO 0312/0318 27010KT 
     TEMPO 0322/0407 1500 BR BKN005 
     PROB30 
     TEMPO 0400/0408 0350 FG VV001
       
LEVT 031600Z 36004KT 330V040 6000 -RA VCTS FEW010 SCT030CB BKN055 16/15 Q1009
TAF LEVT 031100Z 0312/0412 34008KT 9999 SCT020 BKN045 TX22/0314Z TN12/0405Z 
     TEMPO 0312/0319 3000 RA SHRA SCT030TCU 
     PROB40 
     TEMPO 0312/0318 TS SCT030CB 
     PROB40 
     TEMPO 0406/0412 3000 RA SHRA SCT030TCU
       
LEZG 031600Z 34015KT 320V020 9999 TS -RA SCT050CB BKN085 22/15 Q1006
TAF LEZG 031100Z 0312/0412 11005KT 9999 FEW050 TX28/0315Z TN14/0406Z 
     BECMG 0314/0318 30010KT 
     TEMPO 0312/0405 32025G40KT 4000 TSRA SCT040CB BKN050